sensor_id;sensor_type;location;lat;lon;timestamp;temperature;humidity
75621;DHT22;64574;48.506;-2.750;2023-02-03T00:02:19;8.60;66.50
75621;DHT22;64574;48.506;-2.750;2023-02-03T00:04:45;8.60;66.50
75621;DHT22;64574;48.506;-2.750;2023-02-03T00:07:11;8.60;66.60
75621;DHT22;64574;48.506;-2.750;2023-02-03T00:09:38;8.60;66.70
75621;DHT22;64574;48.506;-2.750;2023-02-03T00:12:04;8.60;66.90
75621;DHT22;64574;48.506;-2.750;2023-02-03T00:14:29;8.60;67.10
75621;DHT22;64574;48.506;-2.750;2023-02-03T00:16:55;8.50;67.20
75621;DHT22;64574;48.506;-2.750;2023-02-03T00:19:21;8.50;67.60
75621;DHT22;64574;48.506;-2.750;2023-02-03T00:21:46;8.50;67.90
75621;DHT22;64574;48.506;-2.750;2023-02-03T00:24:12;8.50;68.10
75621;DHT22;64574;48.506;-2.750;2023-02-03T00:26:42;8.50;68.20
75621;DHT22;64574;48.506;-2.750;2023-02-03T00:29:07;8.50;68.30
75621;DHT22;64574;48.506;-2.750;2023-02-03T00:31:34;8.60;68.50
75621;DHT22;64574;48.506;-2.750;2023-02-03T00:33:59;8.60;68.60
75621;DHT22;64574;48.506;-2.750;2023-02-03T00:36:26;8.60;68.70
75621;DHT22;64574;48.506;-2.750;2023-02-03T00:38:52;8.50;68.90
75621;DHT22;64574;48.506;-2.750;2023-02-03T00:41:18;8.60;68.90
75621;DHT22;64574;48.506;-2.750;2023-02-03T00:43:44;8.60;69.00
75621;DHT22;64574;48.506;-2.750;2023-02-03T00:46:09;8.50;69.10
75621;DHT22;64574;48.506;-2.750;2023-02-03T00:48:35;8.50;69.30
75621;DHT22;64574;48.506;-2.750;2023-02-03T00:51:01;8.50;69.50
75621;DHT22;64574;48.506;-2.750;2023-02-03T00:53:26;8.50;69.90
75621;DHT22;64574;48.506;-2.750;2023-02-03T00:55:52;8.50;70.00
75621;DHT22;64574;48.506;-2.750;2023-02-03T00:58:17;8.50;70.10
75621;DHT22;64574;48.506;-2.750;2023-02-03T01:00:43;8.50;70.20
75621;DHT22;64574;48.506;-2.750;2023-02-03T01:03:09;8.50;70.30
75621;DHT22;64574;48.506;-2.750;2023-02-03T01:05:35;8.50;70.40
75621;DHT22;64574;48.506;-2.750;2023-02-03T01:08:01;8.50;70.40
75621;DHT22;64574;48.506;-2.750;2023-02-03T01:10:27;8.50;70.40
75621;DHT22;64574;48.506;-2.750;2023-02-03T01:12:52;8.50;70.50
75621;DHT22;64574;48.506;-2.750;2023-02-03T01:15:18;8.50;70.50
75621;DHT22;64574;48.506;-2.750;2023-02-03T01:17:44;8.60;70.40
75621;DHT22;64574;48.506;-2.750;2023-02-03T01:20:10;8.50;70.50
75621;DHT22;64574;48.506;-2.750;2023-02-03T01:22:40;8.50;70.40
75621;DHT22;64574;48.506;-2.750;2023-02-03T01:25:06;8.50;70.50
75621;DHT22;64574;48.506;-2.750;2023-02-03T01:27:32;8.50;70.60
75621;DHT22;64574;48.506;-2.750;2023-02-03T01:29:58;8.50;70.60
75621;DHT22;64574;48.506;-2.750;2023-02-03T01:32:24;8.50;70.60
75621;DHT22;64574;48.506;-2.750;2023-02-03T01:34:49;8.50;70.60
75621;DHT22;64574;48.506;-2.750;2023-02-03T01:37:15;8.50;70.60
75621;DHT22;64574;48.506;-2.750;2023-02-03T01:39:43;8.50;70.40
75621;DHT22;64574;48.506;-2.750;2023-02-03T01:42:12;8.50;70.50
75621;DHT22;64574;48.506;-2.750;2023-02-03T01:47:35;8.50;70.50
75621;DHT22;64574;48.506;-2.750;2023-02-03T01:50:12;8.50;70.60
75621;DHT22;64574;48.506;-2.750;2023-02-03T01:52:41;8.40;70.60
75621;DHT22;64574;48.506;-2.750;2023-02-03T01:55:11;8.50;70.70
75621;DHT22;64574;48.506;-2.750;2023-02-03T01:57:49;8.50;70.80
75621;DHT22;64574;48.506;-2.750;2023-02-03T02:00:15;8.50;70.90
75621;DHT22;64574;48.506;-2.750;2023-02-03T02:02:43;8.50;70.90
75621;DHT22;64574;48.506;-2.750;2023-02-03T02:05:30;8.40;71.00
75621;DHT22;64574;48.506;-2.750;2023-02-03T02:07:59;8.50;71.20
75621;DHT22;64574;48.506;-2.750;2023-02-03T02:10:25;8.50;71.20
75621;DHT22;64574;48.506;-2.750;2023-02-03T02:12:52;8.50;71.10
75621;DHT22;64574;48.506;-2.750;2023-02-03T02:15:22;8.50;71.20
75621;DHT22;64574;48.506;-2.750;2023-02-03T02:18:04;8.50;71.40
75621;DHT22;64574;48.506;-2.750;2023-02-03T02:21:03;8.50;71.40
75621;DHT22;64574;48.506;-2.750;2023-02-03T02:29:27;8.50;71.70
75621;DHT22;64574;48.506;-2.750;2023-02-03T02:34:49;8.50;71.80
75621;DHT22;64574;48.506;-2.750;2023-02-03T02:45:26;8.50;71.80
75621;DHT22;64574;48.506;-2.750;2023-02-03T02:48:04;8.40;72.10
75621;DHT22;64574;48.506;-2.750;2023-02-03T02:50:33;8.40;71.90
75621;DHT22;64574;48.506;-2.750;2023-02-03T02:53:02;8.40;72.10
75621;DHT22;64574;48.506;-2.750;2023-02-03T02:55:31;8.40;72.00
75621;DHT22;64574;48.506;-2.750;2023-02-03T02:58:02;8.40;72.00
75621;DHT22;64574;48.506;-2.750;2023-02-03T03:00:30;8.40;71.90
75621;DHT22;64574;48.506;-2.750;2023-02-03T03:03:27;8.40;72.00
75621;DHT22;64574;48.506;-2.750;2023-02-03T03:06:03;8.40;72.10
75621;DHT22;64574;48.506;-2.750;2023-02-03T03:12:00;8.40;71.90
75621;DHT22;64574;48.506;-2.750;2023-02-03T03:14:28;8.40;71.90
75621;DHT22;64574;48.506;-2.750;2023-02-03T03:17:05;8.50;71.80
75621;DHT22;64574;48.506;-2.750;2023-02-03T03:19:36;8.50;71.60
75621;DHT22;64574;48.506;-2.750;2023-02-03T03:22:05;8.50;71.80
75621;DHT22;64574;48.506;-2.750;2023-02-03T03:24:36;8.40;71.80
75621;DHT22;64574;48.506;-2.750;2023-02-03T03:27:09;8.40;72.00
75621;DHT22;64574;48.506;-2.750;2023-02-03T03:29:48;8.40;71.90
75621;DHT22;64574;48.506;-2.750;2023-02-03T03:32:15;8.50;71.80
75621;DHT22;64574;48.506;-2.750;2023-02-03T03:34:41;8.40;72.00
75621;DHT22;64574;48.506;-2.750;2023-02-03T03:37:22;8.40;72.10
75621;DHT22;64574;48.506;-2.750;2023-02-03T03:39:57;8.40;72.10
75621;DHT22;64574;48.506;-2.750;2023-02-03T03:42:38;8.40;72.20
75621;DHT22;64574;48.506;-2.750;2023-02-03T03:45:07;8.40;72.30
75621;DHT22;64574;48.506;-2.750;2023-02-03T03:50:31;8.40;72.50
75621;DHT22;64574;48.506;-2.750;2023-02-03T03:53:00;8.40;72.40
75621;DHT22;64574;48.506;-2.750;2023-02-03T03:55:29;8.40;72.50
75621;DHT22;64574;48.506;-2.750;2023-02-03T03:58:09;8.40;72.50
75621;DHT22;64574;48.506;-2.750;2023-02-03T04:00:38;8.40;72.50
75621;DHT22;64574;48.506;-2.750;2023-02-03T04:03:10;8.40;72.50
75621;DHT22;64574;48.506;-2.750;2023-02-03T04:05:37;8.30;72.80
75621;DHT22;64574;48.506;-2.750;2023-02-03T04:08:03;8.30;72.80
75621;DHT22;64574;48.506;-2.750;2023-02-03T04:10:38;8.30;73.10
75621;DHT22;64574;48.506;-2.750;2023-02-03T04:13:04;8.30;73.00
75621;DHT22;64574;48.506;-2.750;2023-02-03T04:15:31;8.30;73.10
75621;DHT22;64574;48.506;-2.750;2023-02-03T04:17:57;8.20;73.50
75621;DHT22;64574;48.506;-2.750;2023-02-03T04:20:23;8.20;73.70
75621;DHT22;64574;48.506;-2.750;2023-02-03T04:22:49;8.20;73.60
75621;DHT22;64574;48.506;-2.750;2023-02-03T04:25:15;8.30;73.40
75621;DHT22;64574;48.506;-2.750;2023-02-03T04:27:41;8.20;73.60
75621;DHT22;64574;48.506;-2.750;2023-02-03T04:30:08;8.20;73.80
75621;DHT22;64574;48.506;-2.750;2023-02-03T04:32:34;8.20;74.00
75621;DHT22;64574;48.506;-2.750;2023-02-03T04:35:04;8.10;74.10
75621;DHT22;64574;48.506;-2.750;2023-02-03T04:37:30;8.20;74.10
75621;DHT22;64574;48.506;-2.750;2023-02-03T04:39:57;8.20;73.90
75621;DHT22;64574;48.506;-2.750;2023-02-03T04:42:23;8.20;74.30
75621;DHT22;64574;48.506;-2.750;2023-02-03T04:44:49;8.10;74.80
75621;DHT22;64574;48.506;-2.750;2023-02-03T04:47:16;8.10;74.90
75621;DHT22;64574;48.506;-2.750;2023-02-03T04:49:42;8.10;75.20
75621;DHT22;64574;48.506;-2.750;2023-02-03T04:52:08;8.20;75.20
75621;DHT22;64574;48.506;-2.750;2023-02-03T04:54:33;8.10;75.50
75621;DHT22;64574;48.506;-2.750;2023-02-03T04:56:59;8.20;75.60
75621;DHT22;64574;48.506;-2.750;2023-02-03T04:59:25;8.20;75.60
75621;DHT22;64574;48.506;-2.750;2023-02-03T05:01:51;8.30;75.60
75621;DHT22;64574;48.506;-2.750;2023-02-03T05:04:16;8.20;75.70
75621;DHT22;64574;48.506;-2.750;2023-02-03T05:06:42;8.30;75.80
75621;DHT22;64574;48.506;-2.750;2023-02-03T05:09:08;8.30;75.80
75621;DHT22;64574;48.506;-2.750;2023-02-03T05:11:33;8.30;76.00
75621;DHT22;64574;48.506;-2.750;2023-02-03T05:13:59;8.20;76.10
75621;DHT22;64574;48.506;-2.750;2023-02-03T05:16:24;8.30;76.20
75621;DHT22;64574;48.506;-2.750;2023-02-03T05:18:50;8.30;76.40
75621;DHT22;64574;48.506;-2.750;2023-02-03T05:21:16;8.30;76.20
75621;DHT22;64574;48.506;-2.750;2023-02-03T05:23:41;8.30;76.20
75621;DHT22;64574;48.506;-2.750;2023-02-03T05:26:07;8.20;76.40
75621;DHT22;64574;48.506;-2.750;2023-02-03T05:28:33;8.20;76.70
75621;DHT22;64574;48.506;-2.750;2023-02-03T05:31:00;8.30;76.60
75621;DHT22;64574;48.506;-2.750;2023-02-03T05:33:26;8.20;76.70
75621;DHT22;64574;48.506;-2.750;2023-02-03T05:35:52;8.30;76.80
75621;DHT22;64574;48.506;-2.750;2023-02-03T05:38:17;8.20;76.80
75621;DHT22;64574;48.506;-2.750;2023-02-03T05:40:43;8.30;76.80
75621;DHT22;64574;48.506;-2.750;2023-02-03T05:43:29;8.20;76.90
75621;DHT22;64574;48.506;-2.750;2023-02-03T05:46:01;8.30;76.90
75621;DHT22;64574;48.506;-2.750;2023-02-03T05:48:28;8.30;77.00
75621;DHT22;64574;48.506;-2.750;2023-02-03T05:50:54;8.30;76.90
75621;DHT22;64574;48.506;-2.750;2023-02-03T05:53:19;8.30;76.70
75621;DHT22;64574;48.506;-2.750;2023-02-03T05:55:45;8.30;76.90
75621;DHT22;64574;48.506;-2.750;2023-02-03T05:58:10;8.30;77.00
75621;DHT22;64574;48.506;-2.750;2023-02-03T06:00:36;8.30;76.90
75621;DHT22;64574;48.506;-2.750;2023-02-03T06:03:03;8.30;76.90
75621;DHT22;64574;48.506;-2.750;2023-02-03T06:05:31;8.30;77.10
75621;DHT22;64574;48.506;-2.750;2023-02-03T06:07:57;8.30;77.40
75621;DHT22;64574;48.506;-2.750;2023-02-03T06:10:23;8.20;77.70
75621;DHT22;64574;48.506;-2.750;2023-02-03T06:12:49;8.20;78.30
75621;DHT22;64574;48.506;-2.750;2023-02-03T06:15:15;8.20;78.40
75621;DHT22;64574;48.506;-2.750;2023-02-03T06:17:46;8.10;78.70
75621;DHT22;64574;48.506;-2.750;2023-02-03T06:20:15;8.10;78.90
75621;DHT22;64574;48.506;-2.750;2023-02-03T06:22:41;8.00;79.50
75621;DHT22;64574;48.506;-2.750;2023-02-03T06:25:07;8.10;79.30
75621;DHT22;64574;48.506;-2.750;2023-02-03T06:27:33;8.10;79.20
75621;DHT22;64574;48.506;-2.750;2023-02-03T06:29:58;8.10;79.00
75621;DHT22;64574;48.506;-2.750;2023-02-03T06:32:24;8.10;79.10
75621;DHT22;64574;48.506;-2.750;2023-02-03T06:34:49;8.20;79.30
75621;DHT22;64574;48.506;-2.750;2023-02-03T06:37:15;8.10;79.00
75621;DHT22;64574;48.506;-2.750;2023-02-03T06:39:41;8.10;78.90
75621;DHT22;64574;48.506;-2.750;2023-02-03T06:42:07;8.10;79.10
75621;DHT22;64574;48.506;-2.750;2023-02-03T06:44:32;8.10;79.10
75621;DHT22;64574;48.506;-2.750;2023-02-03T06:46:58;8.10;79.00
75621;DHT22;64574;48.506;-2.750;2023-02-03T06:49:24;8.10;79.10
75621;DHT22;64574;48.506;-2.750;2023-02-03T06:51:49;8.10;79.20
75621;DHT22;64574;48.506;-2.750;2023-02-03T06:54:16;8.00;79.20
75621;DHT22;64574;48.506;-2.750;2023-02-03T06:56:42;8.10;79.20
75621;DHT22;64574;48.506;-2.750;2023-02-03T06:59:08;8.10;79.30
75621;DHT22;64574;48.506;-2.750;2023-02-03T07:01:34;8.00;79.40
75621;DHT22;64574;48.506;-2.750;2023-02-03T07:04:00;8.00;79.60
75621;DHT22;64574;48.506;-2.750;2023-02-03T07:06:27;8.00;80.10
75621;DHT22;64574;48.506;-2.750;2023-02-03T07:08:59;8.00;80.20
75621;DHT22;64574;48.506;-2.750;2023-02-03T07:11:25;8.00;80.30
75621;DHT22;64574;48.506;-2.750;2023-02-03T07:13:51;8.00;80.40
75621;DHT22;64574;48.506;-2.750;2023-02-03T07:16:17;8.00;80.70
75621;DHT22;64574;48.506;-2.750;2023-02-03T07:18:43;8.00;80.70
75621;DHT22;64574;48.506;-2.750;2023-02-03T07:21:08;7.90;81.00
75621;DHT22;64574;48.506;-2.750;2023-02-03T07:23:34;7.80;81.20
75621;DHT22;64574;48.506;-2.750;2023-02-03T07:26:01;7.80;81.10
75621;DHT22;64574;48.506;-2.750;2023-02-03T07:28:29;7.80;81.30
75621;DHT22;64574;48.506;-2.750;2023-02-03T07:30:55;7.80;81.10
75621;DHT22;64574;48.506;-2.750;2023-02-03T07:33:20;7.80;81.10
75621;DHT22;64574;48.506;-2.750;2023-02-03T07:36:12;7.80;81.00
75621;DHT22;64574;48.506;-2.750;2023-02-03T07:38:38;7.80;80.80
75621;DHT22;64574;48.506;-2.750;2023-02-03T07:41:04;7.80;80.80
75621;DHT22;64574;48.506;-2.750;2023-02-03T07:43:30;7.70;80.80
75621;DHT22;64574;48.506;-2.750;2023-02-03T07:45:56;7.70;80.80
75621;DHT22;64574;48.506;-2.750;2023-02-03T07:48:22;7.70;80.80
75621;DHT22;64574;48.506;-2.750;2023-02-03T07:50:48;7.60;80.80
75621;DHT22;64574;48.506;-2.750;2023-02-03T07:53:15;7.60;80.80
75621;DHT22;64574;48.506;-2.750;2023-02-03T07:55:41;7.60;81.00
75621;DHT22;64574;48.506;-2.750;2023-02-03T07:58:07;7.60;80.90
75621;DHT22;64574;48.506;-2.750;2023-02-03T08:00:32;7.60;80.90
75621;DHT22;64574;48.506;-2.750;2023-02-03T08:02:58;7.80;80.90
75621;DHT22;64574;48.506;-2.750;2023-02-03T08:05:24;7.80;80.70
75621;DHT22;64574;48.506;-2.750;2023-02-03T08:07:49;7.80;80.90
75621;DHT22;64574;48.506;-2.750;2023-02-03T08:10:15;7.80;81.10
75621;DHT22;64574;48.506;-2.750;2023-02-03T08:12:42;7.80;81.40
75621;DHT22;64574;48.506;-2.750;2023-02-03T08:15:09;7.80;81.50
75621;DHT22;64574;48.506;-2.750;2023-02-03T08:17:35;7.80;81.70
75621;DHT22;64574;48.506;-2.750;2023-02-03T08:20:01;7.80;82.20
75621;DHT22;64574;48.506;-2.750;2023-02-03T08:22:27;7.80;82.20
75621;DHT22;64574;48.506;-2.750;2023-02-03T08:24:52;7.80;82.50
75621;DHT22;64574;48.506;-2.750;2023-02-03T08:27:20;7.80;82.60
75621;DHT22;64574;48.506;-2.750;2023-02-03T08:29:46;7.80;82.70
75621;DHT22;64574;48.506;-2.750;2023-02-03T08:32:15;7.80;82.70
75621;DHT22;64574;48.506;-2.750;2023-02-03T08:34:41;7.80;82.60
75621;DHT22;64574;48.506;-2.750;2023-02-03T08:37:07;7.80;82.70
75621;DHT22;64574;48.506;-2.750;2023-02-03T08:39:33;7.80;82.70
75621;DHT22;64574;48.506;-2.750;2023-02-03T08:41:59;7.80;82.90
75621;DHT22;64574;48.506;-2.750;2023-02-03T08:44:25;7.80;82.80
75621;DHT22;64574;48.506;-2.750;2023-02-03T08:46:52;7.80;82.90
75621;DHT22;64574;48.506;-2.750;2023-02-03T08:49:18;7.90;82.90
75621;DHT22;64574;48.506;-2.750;2023-02-03T08:51:46;8.00;82.70
75621;DHT22;64574;48.506;-2.750;2023-02-03T08:54:12;8.00;82.40
75621;DHT22;64574;48.506;-2.750;2023-02-03T08:56:38;8.10;82.30
75621;DHT22;64574;48.506;-2.750;2023-02-03T08:59:04;8.10;82.30
75621;DHT22;64574;48.506;-2.750;2023-02-03T09:01:30;8.20;82.10
75621;DHT22;64574;48.506;-2.750;2023-02-03T09:03:55;8.20;82.10
75621;DHT22;64574;48.506;-2.750;2023-02-03T09:06:22;8.20;82.20
75621;DHT22;64574;48.506;-2.750;2023-02-03T09:08:47;8.20;82.30
75621;DHT22;64574;48.506;-2.750;2023-02-03T09:11:16;8.10;82.40
75621;DHT22;64574;48.506;-2.750;2023-02-03T09:13:41;8.10;82.50
75621;DHT22;64574;48.506;-2.750;2023-02-03T09:16:11;8.20;82.50
75621;DHT22;64574;48.506;-2.750;2023-02-03T09:18:37;8.30;82.20
75621;DHT22;64574;48.506;-2.750;2023-02-03T09:21:07;8.30;82.20
75621;DHT22;64574;48.506;-2.750;2023-02-03T09:23:35;8.40;82.10
75621;DHT22;64574;48.506;-2.750;2023-02-03T09:26:06;8.50;81.90
75621;DHT22;64574;48.506;-2.750;2023-02-03T09:28:33;8.50;81.70
75621;DHT22;64574;48.506;-2.750;2023-02-03T09:31:04;8.50;81.60
75621;DHT22;64574;48.506;-2.750;2023-02-03T09:33:30;8.60;80.90
75621;DHT22;64574;48.506;-2.750;2023-02-03T09:35:56;8.50;80.50
75621;DHT22;64574;48.506;-2.750;2023-02-03T09:38:22;8.50;80.30
75621;DHT22;64574;48.506;-2.750;2023-02-03T09:40:52;8.50;80.30
75621;DHT22;64574;48.506;-2.750;2023-02-03T09:43:34;8.60;80.00
75621;DHT22;64574;48.506;-2.750;2023-02-03T09:46:11;8.60;80.00
75621;DHT22;64574;48.506;-2.750;2023-02-03T09:48:46;8.60;79.70
75621;DHT22;64574;48.506;-2.750;2023-02-03T09:51:20;8.60;79.50
75621;DHT22;64574;48.506;-2.750;2023-02-03T09:54:20;8.60;79.30
75621;DHT22;64574;48.506;-2.750;2023-02-03T09:56:48;8.50;79.50
75621;DHT22;64574;48.506;-2.750;2023-02-03T09:59:20;8.50;79.10
75621;DHT22;64574;48.506;-2.750;2023-02-03T10:02:03;8.50;79.00
75621;DHT22;64574;48.506;-2.750;2023-02-03T10:04:36;8.60;78.80
75621;DHT22;64574;48.506;-2.750;2023-02-03T10:07:17;8.70;78.70
75621;DHT22;64574;48.506;-2.750;2023-02-03T10:12:56;8.90;78.30
75621;DHT22;64574;48.506;-2.750;2023-02-03T10:17:56;9.00;77.30
75621;DHT22;64574;48.506;-2.750;2023-02-03T10:20:39;9.00;76.50
75621;DHT22;64574;48.506;-2.750;2023-02-03T10:23:19;9.00;75.80
75621;DHT22;64574;48.506;-2.750;2023-02-03T10:25:52;9.00;75.50
75621;DHT22;64574;48.506;-2.750;2023-02-03T10:28:22;9.00;75.30
75621;DHT22;64574;48.506;-2.750;2023-02-03T10:33:23;9.00;75.20
75621;DHT22;64574;48.506;-2.750;2023-02-03T10:35:55;9.00;75.10
75621;DHT22;64574;48.506;-2.750;2023-02-03T10:38:51;9.10;75.40
75621;DHT22;64574;48.506;-2.750;2023-02-03T10:41:21;9.20;75.20
75621;DHT22;64574;48.506;-2.750;2023-02-03T10:43:49;9.20;75.00
75621;DHT22;64574;48.506;-2.750;2023-02-03T10:46:29;9.30;75.20
75621;DHT22;64574;48.506;-2.750;2023-02-03T10:48:56;9.20;74.70
75621;DHT22;64574;48.506;-2.750;2023-02-03T10:51:27;9.30;74.50
75621;DHT22;64574;48.506;-2.750;2023-02-03T10:53:56;9.20;74.20
75621;DHT22;64574;48.506;-2.750;2023-02-03T10:56:29;9.20;74.30
75621;DHT22;64574;48.506;-2.750;2023-02-03T10:58:58;9.30;74.20
75621;DHT22;64574;48.506;-2.750;2023-02-03T11:01:44;9.40;74.20
75621;DHT22;64574;48.506;-2.750;2023-02-03T11:04:40;9.40;73.70
75621;DHT22;64574;48.506;-2.750;2023-02-03T11:07:10;9.40;73.80
75621;DHT22;64574;48.506;-2.750;2023-02-03T11:09:47;9.40;74.00
75621;DHT22;64574;48.506;-2.750;2023-02-03T11:12:18;9.20;73.70
75621;DHT22;64574;48.506;-2.750;2023-02-03T11:14:52;9.20;73.60
75621;DHT22;64574;48.506;-2.750;2023-02-03T11:17:26;9.20;73.80
75621;DHT22;64574;48.506;-2.750;2023-02-03T11:20:03;9.20;73.80
75621;DHT22;64574;48.506;-2.750;2023-02-03T11:22:35;9.40;73.60
75621;DHT22;64574;48.506;-2.750;2023-02-03T11:25:04;9.40;73.00
75621;DHT22;64574;48.506;-2.750;2023-02-03T11:27:40;9.40;73.10
75621;DHT22;64574;48.506;-2.750;2023-02-03T11:32:41;9.60;72.90
75621;DHT22;64574;48.506;-2.750;2023-02-03T11:37:44;9.60;72.20
75621;DHT22;64574;48.506;-2.750;2023-02-03T11:42:44;9.60;71.90
75621;DHT22;64574;48.506;-2.750;2023-02-03T11:59:20;9.70;71.00
75621;DHT22;64574;48.506;-2.750;2023-02-03T12:02:04;9.70;71.30
75621;DHT22;64574;48.506;-2.750;2023-02-03T12:07:30;9.80;70.90
75621;DHT22;64574;48.506;-2.750;2023-02-03T12:12:56;9.80;70.80
75621;DHT22;64574;48.506;-2.750;2023-02-03T12:20:52;9.80;70.90
75621;DHT22;64574;48.506;-2.750;2023-02-03T12:23:36;9.80;70.80
75621;DHT22;64574;48.506;-2.750;2023-02-03T12:28:57;10.00;70.40
75621;DHT22;64574;48.506;-2.750;2023-02-03T12:31:36;10.00;70.00
75621;DHT22;64574;48.506;-2.750;2023-02-03T12:36:56;9.90;70.30
75621;DHT22;64574;48.506;-2.750;2023-02-03T12:39:31;9.80;70.00
75621;DHT22;64574;48.506;-2.750;2023-02-03T12:42:20;9.80;70.10
75621;DHT22;64574;48.506;-2.750;2023-02-03T12:44:56;9.80;70.20
75621;DHT22;64574;48.506;-2.750;2023-02-03T12:50:13;9.90;69.80
75621;DHT22;64574;48.506;-2.750;2023-02-03T12:53:10;9.90;70.00
75621;DHT22;64574;48.506;-2.750;2023-02-03T12:55:40;9.80;69.80
75621;DHT22;64574;48.506;-2.750;2023-02-03T12:58:10;9.80;69.80
75621;DHT22;64574;48.506;-2.750;2023-02-03T13:03:20;9.80;69.90
75621;DHT22;64574;48.506;-2.750;2023-02-03T13:14:04;9.80;69.70
75621;DHT22;64574;48.506;-2.750;2023-02-03T13:16:37;10.00;69.30
75621;DHT22;64574;48.506;-2.750;2023-02-03T13:19:21;10.00;69.40
75621;DHT22;64574;48.506;-2.750;2023-02-03T13:21:49;10.00;68.60
75621;DHT22;64574;48.506;-2.750;2023-02-03T13:24:15;10.00;68.30
75621;DHT22;64574;48.506;-2.750;2023-02-03T13:26:45;10.00;67.80
75621;DHT22;64574;48.506;-2.750;2023-02-03T13:32:23;10.00;67.80
75621;DHT22;64574;48.506;-2.750;2023-02-03T13:43:05;10.00;68.70
75621;DHT22;64574;48.506;-2.750;2023-02-03T13:45:44;10.00;68.80
75621;DHT22;64574;48.506;-2.750;2023-02-03T13:48:18;10.00;69.10
75621;DHT22;64574;48.506;-2.750;2023-02-03T13:50:47;10.00;69.00
75621;DHT22;64574;48.506;-2.750;2023-02-03T13:53:18;10.00;69.10
75621;DHT22;64574;48.506;-2.750;2023-02-03T13:58:23;10.00;69.10
75621;DHT22;64574;48.506;-2.750;2023-02-03T14:03:17;10.10;67.70
75621;DHT22;64574;48.506;-2.750;2023-02-03T14:05:45;10.10;67.80
75621;DHT22;64574;48.506;-2.750;2023-02-03T14:22:01;10.00;68.20
75621;DHT22;64574;48.506;-2.750;2023-02-03T14:24:37;10.00;68.50
75621;DHT22;64574;48.506;-2.750;2023-02-03T14:27:15;10.00;68.30
75621;DHT22;64574;48.506;-2.750;2023-02-03T14:29:42;10.00;68.40
75621;DHT22;64574;48.506;-2.750;2023-02-03T14:32:09;10.00;68.50
75621;DHT22;64574;48.506;-2.750;2023-02-03T14:34:44;10.00;68.50
75621;DHT22;64574;48.506;-2.750;2023-02-03T14:37:14;10.10;68.60
75621;DHT22;64574;48.506;-2.750;2023-02-03T14:40:05;10.10;68.70
75621;DHT22;64574;48.506;-2.750;2023-02-03T14:53:58;10.10;67.20
75621;DHT22;64574;48.506;-2.750;2023-02-03T14:59:21;10.10;67.40
75621;DHT22;64574;48.506;-2.750;2023-02-03T15:04:27;10.10;67.00
75621;DHT22;64574;48.506;-2.750;2023-02-03T15:06:53;10.10;66.50
75621;DHT22;64574;48.506;-2.750;2023-02-03T15:11:52;10.00;65.80
75621;DHT22;64574;48.506;-2.750;2023-02-03T15:14:25;10.00;66.00
75621;DHT22;64574;48.506;-2.750;2023-02-03T15:16:56;10.00;66.00
75621;DHT22;64574;48.506;-2.750;2023-02-03T15:19:25;10.00;65.70
75621;DHT22;64574;48.506;-2.750;2023-02-03T15:21:52;10.10;66.00
75621;DHT22;64574;48.506;-2.750;2023-02-03T15:24:19;10.10;66.00
75621;DHT22;64574;48.506;-2.750;2023-02-03T15:26:50;10.00;66.20
75621;DHT22;64574;48.506;-2.750;2023-02-03T15:29:28;10.00;66.10
75621;DHT22;64574;48.506;-2.750;2023-02-03T15:32:19;10.00;66.10
75621;DHT22;64574;48.506;-2.750;2023-02-03T15:34:50;10.00;66.10
75621;DHT22;64574;48.506;-2.750;2023-02-03T15:37:18;10.00;65.80
75621;DHT22;64574;48.506;-2.750;2023-02-03T15:40:00;10.00;65.60
75621;DHT22;64574;48.506;-2.750;2023-02-03T15:42:38;10.00;65.70
75621;DHT22;64574;48.506;-2.750;2023-02-03T15:45:18;10.00;65.50
75621;DHT22;64574;48.506;-2.750;2023-02-03T15:47:51;10.00;65.60
75621;DHT22;64574;48.506;-2.750;2023-02-03T15:52:49;10.00;65.50
75621;DHT22;64574;48.506;-2.750;2023-02-03T15:55:43;10.00;65.50
75621;DHT22;64574;48.506;-2.750;2023-02-03T15:58:22;10.00;65.70
75621;DHT22;64574;48.506;-2.750;2023-02-03T16:00:55;10.00;65.80
75621;DHT22;64574;48.506;-2.750;2023-02-03T16:03:35;10.00;65.60
75621;DHT22;64574;48.506;-2.750;2023-02-03T16:06:18;10.00;65.80
75621;DHT22;64574;48.506;-2.750;2023-02-03T16:08:47;10.00;66.00
75621;DHT22;64574;48.506;-2.750;2023-02-03T16:11:25;10.00;66.20
75621;DHT22;64574;48.506;-2.750;2023-02-03T16:13:52;9.90;66.30
75621;DHT22;64574;48.506;-2.750;2023-02-03T16:19:01;9.90;66.70
75621;DHT22;64574;48.506;-2.750;2023-02-03T16:21:29;9.90;66.90
75621;DHT22;64574;48.506;-2.750;2023-02-03T16:23:56;9.90;66.90
75621;DHT22;64574;48.506;-2.750;2023-02-03T16:26:24;9.90;67.10
75621;DHT22;64574;48.506;-2.750;2023-02-03T16:31:48;9.90;67.40
75621;DHT22;64574;48.506;-2.750;2023-02-03T16:34:33;9.80;67.70
75621;DHT22;64574;48.506;-2.750;2023-02-03T16:40:12;9.80;66.50
75621;DHT22;64574;48.506;-2.750;2023-02-03T16:42:57;9.80;66.00
75621;DHT22;64574;48.506;-2.750;2023-02-03T16:45:41;9.80;65.70
75621;DHT22;64574;48.506;-2.750;2023-02-03T16:48:26;9.80;65.90
75621;DHT22;64574;48.506;-2.750;2023-02-03T16:51:13;9.80;65.70
75621;DHT22;64574;48.506;-2.750;2023-02-03T16:53:41;9.70;64.10
75621;DHT22;64574;48.506;-2.750;2023-02-03T16:56:07;9.70;64.00
75621;DHT22;64574;48.506;-2.750;2023-02-03T16:58:33;9.80;63.80
75621;DHT22;64574;48.506;-2.750;2023-02-03T17:01:01;9.70;63.90
75621;DHT22;64574;48.506;-2.750;2023-02-03T17:03:28;9.70;64.20
75621;DHT22;64574;48.506;-2.750;2023-02-03T17:05:55;9.80;64.40
75621;DHT22;64574;48.506;-2.750;2023-02-03T17:08:23;9.70;64.70
75621;DHT22;64574;48.506;-2.750;2023-02-03T17:10:50;9.70;64.70
75621;DHT22;64574;48.506;-2.750;2023-02-03T17:13:20;9.70;64.30
75621;DHT22;64574;48.506;-2.750;2023-02-03T17:15:48;9.70;64.30
75621;DHT22;64574;48.506;-2.750;2023-02-03T17:18:15;9.70;63.90
75621;DHT22;64574;48.506;-2.750;2023-02-03T17:20:42;9.60;64.00
75621;DHT22;64574;48.506;-2.750;2023-02-03T17:23:08;9.60;64.00
75621;DHT22;64574;48.506;-2.750;2023-02-03T17:25:35;9.60;64.00
75621;DHT22;64574;48.506;-2.750;2023-02-03T17:28:02;9.50;63.60
75621;DHT22;64574;48.506;-2.750;2023-02-03T17:30:28;9.60;63.20
75621;DHT22;64574;48.506;-2.750;2023-02-03T17:32:58;9.50;62.60
75621;DHT22;64574;48.506;-2.750;2023-02-03T17:35:24;9.60;62.80
75621;DHT22;64574;48.506;-2.750;2023-02-03T17:37:50;9.50;62.50
75621;DHT22;64574;48.506;-2.750;2023-02-03T17:40:17;9.50;62.60
75621;DHT22;64574;48.506;-2.750;2023-02-03T17:42:42;9.50;62.70
75621;DHT22;64574;48.506;-2.750;2023-02-03T17:45:08;9.60;62.90
75621;DHT22;64574;48.506;-2.750;2023-02-03T17:47:34;9.60;63.00
75621;DHT22;64574;48.506;-2.750;2023-02-03T17:49:59;9.60;63.00
75621;DHT22;64574;48.506;-2.750;2023-02-03T17:52:26;9.50;63.20
75621;DHT22;64574;48.506;-2.750;2023-02-03T17:54:51;9.50;63.10
75621;DHT22;64574;48.506;-2.750;2023-02-03T17:57:17;9.50;63.20
75621;DHT22;64574;48.506;-2.750;2023-02-03T17:59:42;9.50;63.50
75621;DHT22;64574;48.506;-2.750;2023-02-03T18:02:08;9.50;63.70
75621;DHT22;64574;48.506;-2.750;2023-02-03T18:04:34;9.50;63.70
75621;DHT22;64574;48.506;-2.750;2023-02-03T18:07:00;9.50;63.80
75621;DHT22;64574;48.506;-2.750;2023-02-03T18:09:25;9.50;63.80
75621;DHT22;64574;48.506;-2.750;2023-02-03T18:11:51;9.50;63.90
75621;DHT22;64574;48.506;-2.750;2023-02-03T18:14:17;9.40;64.00